sensor_id;sensor_type;location;lat;lon;timestamp;P1;durP1;ratioP1;P2;durP2;ratioP2
2123;SDS011;1068;52.460;13.528;2022-12-18T00:02:01;27.15;;;14.77;;
2123;SDS011;1068;52.460;13.528;2022-12-18T00:04:28;28.20;;;14.57;;
2123;SDS011;1068;52.460;13.528;2022-12-18T00:06:55;31.13;;;13.77;;
2123;SDS011;1068;52.460;13.528;2022-12-18T00:09:22;33.65;;;16.13;;
2123;SDS011;1068;52.460;13.528;2022-12-18T00:11:50;35.20;;;15.18;;
2123;SDS011;1068;52.460;13.528;2022-12-18T00:14:17;30.02;;;14.20;;
2123;SDS011;1068;52.460;13.528;2022-12-18T00:16:44;29.25;;;14.88;;
2123;SDS011;1068;52.460;13.528;2022-12-18T00:19:12;35.17;;;14.05;;
2123;SDS011;1068;52.460;13.528;2022-12-18T00:21:39;33.72;;;15.40;;
2123;SDS011;1068;52.460;13.528;2022-12-18T00:24:06;27.77;;;13.25;;
2123;SDS011;1068;52.460;13.528;2022-12-18T00:26:33;23.33;;;12.95;;
2123;SDS011;1068;52.460;13.528;2022-12-18T00:29:03;30.15;;;13.85;;
2123;SDS011;1068;52.460;13.528;2022-12-18T00:31:30;28.25;;;14.60;;
2123;SDS011;1068;52.460;13.528;2022-12-18T00:33:57;26.42;;;13.35;;
2123;SDS011;1068;52.460;13.528;2022-12-18T00:36:24;27.10;;;14.13;;
2123;SDS011;1068;52.460;13.528;2022-12-18T00:38:52;27.77;;;13.18;;
2123;SDS011;1068;52.460;13.528;2022-12-18T00:41:19;26.70;;;13.75;;
2123;SDS011;1068;52.460;13.528;2022-12-18T00:44:02;25.45;;;14.30;;
2123;SDS011;1068;52.460;13.528;2022-12-18T00:46:29;26.67;;;13.50;;
2123;SDS011;1068;52.460;13.528;2022-12-18T00:48:57;32.03;;;13.70;;
2123;SDS011;1068;52.460;13.528;2022-12-18T00:51:24;32.72;;;14.00;;
2123;SDS011;1068;52.460;13.528;2022-12-18T00:53:51;28.92;;;13.98;;
2123;SDS011;1068;52.460;13.528;2022-12-18T00:56:21;26.38;;;13.23;;
2123;SDS011;1068;52.460;13.528;2022-12-18T00:58:48;28.80;;;12.38;;
2123;SDS011;1068;52.460;13.528;2022-12-18T01:01:17;32.47;;;15.77;;
2123;SDS011;1068;52.460;13.528;2022-12-18T01:03:44;25.67;;;13.10;;
2123;SDS011;1068;52.460;13.528;2022-12-18T01:06:12;23.15;;;13.57;;
2123;SDS011;1068;52.460;13.528;2022-12-18T01:08:39;29.63;;;13.50;;
2123;SDS011;1068;52.460;13.528;2022-12-18T01:11:07;32.58;;;14.40;;
2123;SDS011;1068;52.460;13.528;2022-12-18T01:13:34;29.38;;;13.85;;
2123;SDS011;1068;52.460;13.528;2022-12-18T01:16:01;26.83;;;12.65;;
2123;SDS011;1068;52.460;13.528;2022-12-18T01:18:29;26.98;;;12.85;;
2123;SDS011;1068;52.460;13.528;2022-12-18T01:20:56;26.63;;;12.27;;
2123;SDS011;1068;52.460;13.528;2022-12-18T01:23:23;27.58;;;13.05;;
2123;SDS011;1068;52.460;13.528;2022-12-18T01:25:53;29.42;;;13.95;;
2123;SDS011;1068;52.460;13.528;2022-12-18T01:28:20;21.77;;;11.45;;
2123;SDS011;1068;52.460;13.528;2022-12-18T01:30:47;23.40;;;12.38;;
2123;SDS011;1068;52.460;13.528;2022-12-18T01:33:14;24.77;;;12.98;;
2123;SDS011;1068;52.460;13.528;2022-12-18T01:35:42;23.80;;;12.10;;
2123;SDS011;1068;52.460;13.528;2022-12-18T01:38:09;24.75;;;13.10;;
2123;SDS011;1068;52.460;13.528;2022-12-18T01:40:36;26.08;;;13.40;;
2123;SDS011;1068;52.460;13.528;2022-12-18T01:43:03;27.02;;;13.07;;
2123;SDS011;1068;52.460;13.528;2022-12-18T01:45:30;25.20;;;13.82;;
2123;SDS011;1068;52.460;13.528;2022-12-18T01:47:58;27.15;;;15.00;;
2123;SDS011;1068;52.460;13.528;2022-12-18T01:50:27;24.88;;;11.98;;
2123;SDS011;1068;52.460;13.528;2022-12-18T01:52:56;23.02;;;12.82;;
2123;SDS011;1068;52.460;13.528;2022-12-18T01:55:25;23.83;;;13.55;;
2123;SDS011;1068;52.460;13.528;2022-12-18T01:57:53;26.25;;;13.50;;
2123;SDS011;1068;52.460;13.528;2022-12-18T02:00:21;30.83;;;14.60;;
2123;SDS011;1068;52.460;13.528;2022-12-18T02:02:48;28.77;;;14.20;;
2123;SDS011;1068;52.460;13.528;2022-12-18T02:05:16;23.58;;;13.00;;
2123;SDS011;1068;52.460;13.528;2022-12-18T02:07:45;25.48;;;12.82;;
2123;SDS011;1068;52.460;13.528;2022-12-18T02:10:17;22.50;;;12.10;;
2123;SDS011;1068;52.460;13.528;2022-12-18T02:12:48;30.50;;;13.80;;
2123;SDS011;1068;52.460;13.528;2022-12-18T02:15:20;31.80;;;15.05;;
2123;SDS011;1068;52.460;13.528;2022-12-18T02:17:52;23.80;;;13.27;;
2123;SDS011;1068;52.460;13.528;2022-12-18T02:20:21;25.95;;;12.98;;
2123;SDS011;1068;52.460;13.528;2022-12-18T02:22:53;32.65;;;15.10;;
2123;SDS011;1068;52.460;13.528;2022-12-18T02:25:33;27.90;;;12.93;;
2123;SDS011;1068;52.460;13.528;2022-12-18T02:28:04;23.05;;;13.00;;
2123;SDS011;1068;52.460;13.528;2022-12-18T02:30:33;25.10;;;11.95;;
2123;SDS011;1068;52.460;13.528;2022-12-18T02:33:01;28.52;;;13.88;;
2123;SDS011;1068;52.460;13.528;2022-12-18T02:35:29;23.83;;;12.93;;
2123;SDS011;1068;52.460;13.528;2022-12-18T02:37:57;22.38;;;12.77;;
2123;SDS011;1068;52.460;13.528;2022-12-18T02:40:25;23.40;;;12.38;;
2123;SDS011;1068;52.460;13.528;2022-12-18T02:42:52;24.75;;;12.48;;
2123;SDS011;1068;52.460;13.528;2022-12-18T02:45:21;24.48;;;12.48;;
2123;SDS011;1068;52.460;13.528;2022-12-18T02:47:48;28.15;;;13.00;;
2123;SDS011;1068;52.460;13.528;2022-12-18T02:50:16;25.20;;;14.18;;
2123;SDS011;1068;52.460;13.528;2022-12-18T02:52:46;25.83;;;13.50;;
2123;SDS011;1068;52.460;13.528;2022-12-18T02:55:18;26.00;;;13.77;;
2123;SDS011;1068;52.460;13.528;2022-12-18T02:57:46;28.15;;;14.82;;
2123;SDS011;1068;52.460;13.528;2022-12-18T03:00:15;25.52;;;11.60;;
2123;SDS011;1068;52.460;13.528;2022-12-18T03:02:45;24.95;;;13.77;;
2123;SDS011;1068;52.460;13.528;2022-12-18T03:05:15;29.77;;;13.95;;
2123;SDS011;1068;52.460;13.528;2022-12-18T03:07:44;28.00;;;14.10;;
2123;SDS011;1068;52.460;13.528;2022-12-18T03:10:13;29.17;;;14.15;;
2123;SDS011;1068;52.460;13.528;2022-12-18T03:12:42;33.17;;;14.95;;
2123;SDS011;1068;52.460;13.528;2022-12-18T03:15:11;30.92;;;14.32;;
2123;SDS011;1068;52.460;13.528;2022-12-18T03:17:40;37.53;;;16.30;;
2123;SDS011;1068;52.460;13.528;2022-12-18T03:20:11;31.40;;;14.40;;
2123;SDS011;1068;52.460;13.528;2022-12-18T03:22:39;32.58;;;15.38;;
2123;SDS011;1068;52.460;13.528;2022-12-18T03:25:09;27.67;;;14.70;;
2123;SDS011;1068;52.460;13.528;2022-12-18T03:27:38;28.52;;;14.27;;
2123;SDS011;1068;52.460;13.528;2022-12-18T03:30:09;31.40;;;14.10;;
2123;SDS011;1068;52.460;13.528;2022-12-18T03:32:38;32.25;;;14.52;;
2123;SDS011;1068;52.460;13.528;2022-12-18T03:35:06;29.70;;;14.27;;
2123;SDS011;1068;52.460;13.528;2022-12-18T03:37:36;26.45;;;13.88;;
2123;SDS011;1068;52.460;13.528;2022-12-18T03:40:03;32.78;;;14.02;;
2123;SDS011;1068;52.460;13.528;2022-12-18T03:42:32;30.48;;;13.43;;
2123;SDS011;1068;52.460;13.528;2022-12-18T03:45:06;24.45;;;11.50;;
2123;SDS011;1068;52.460;13.528;2022-12-18T03:47:36;28.98;;;12.82;;
2123;SDS011;1068;52.460;13.528;2022-12-18T03:50:07;25.35;;;13.35;;
2123;SDS011;1068;52.460;13.528;2022-12-18T03:52:38;22.23;;;11.68;;
2123;SDS011;1068;52.460;13.528;2022-12-18T03:55:08;22.05;;;11.90;;
2123;SDS011;1068;52.460;13.528;2022-12-18T03:57:36;25.67;;;11.85;;
2123;SDS011;1068;52.460;13.528;2022-12-18T04:00:04;24.42;;;12.82;;
2123;SDS011;1068;52.460;13.528;2022-12-18T04:02:32;26.67;;;12.07;;
2123;SDS011;1068;52.460;13.528;2022-12-18T04:05:01;21.90;;;11.32;;
2123;SDS011;1068;52.460;13.528;2022-12-18T04:07:29;19.15;;;10.13;;
2123;SDS011;1068;52.460;13.528;2022-12-18T04:09:57;24.48;;;12.82;;
2123;SDS011;1068;52.460;13.528;2022-12-18T04:12:25;24.70;;;10.75;;
2123;SDS011;1068;52.460;13.528;2022-12-18T04:14:52;28.65;;;13.85;;
2123;SDS011;1068;52.460;13.528;2022-12-18T04:17:19;26.90;;;12.70;;
2123;SDS011;1068;52.460;13.528;2022-12-18T04:19:46;20.70;;;10.77;;
2123;SDS011;1068;52.460;13.528;2022-12-18T04:22:13;23.00;;;12.60;;
2123;SDS011;1068;52.460;13.528;2022-12-18T04:24:40;23.52;;;11.13;;
2123;SDS011;1068;52.460;13.528;2022-12-18T04:27:08;21.08;;;11.20;;
2123;SDS011;1068;52.460;13.528;2022-12-18T04:29:35;22.73;;;11.48;;
2123;SDS011;1068;52.460;13.528;2022-12-18T04:32:02;26.92;;;10.98;;
2123;SDS011;1068;52.460;13.528;2022-12-18T04:34:29;27.58;;;11.90;;
2123;SDS011;1068;52.460;13.528;2022-12-18T04:36:56;27.95;;;12.20;;
2123;SDS011;1068;52.460;13.528;2022-12-18T04:39:24;32.35;;;13.32;;
2123;SDS011;1068;52.460;13.528;2022-12-18T04:41:51;24.23;;;12.27;;
2123;SDS011;1068;52.460;13.528;2022-12-18T04:44:19;26.05;;;12.85;;
2123;SDS011;1068;52.460;13.528;2022-12-18T04:46:46;29.25;;;14.18;;
2123;SDS011;1068;52.460;13.528;2022-12-18T04:49:13;23.10;;;11.60;;
2123;SDS011;1068;52.460;13.528;2022-12-18T04:51:40;22.83;;;12.05;;
2123;SDS011;1068;52.460;13.528;2022-12-18T04:54:07;25.13;;;12.40;;
2123;SDS011;1068;52.460;13.528;2022-12-18T04:56:34;24.38;;;10.80;;
2123;SDS011;1068;52.460;13.528;2022-12-18T04:59:01;28.52;;;12.88;;
2123;SDS011;1068;52.460;13.528;2022-12-18T05:01:29;25.42;;;11.85;;
2123;SDS011;1068;52.460;13.528;2022-12-18T05:03:58;24.58;;;12.05;;
2123;SDS011;1068;52.460;13.528;2022-12-18T05:06:25;23.60;;;12.60;;
2123;SDS011;1068;52.460;13.528;2022-12-18T05:08:52;26.30;;;13.20;;
2123;SDS011;1068;52.460;13.528;2022-12-18T05:11:19;28.63;;;12.98;;
2123;SDS011;1068;52.460;13.528;2022-12-18T05:13:46;25.48;;;12.65;;
2123;SDS011;1068;52.460;13.528;2022-12-18T05:16:13;28.08;;;13.25;;
2123;SDS011;1068;52.460;13.528;2022-12-18T05:18:41;26.25;;;12.43;;
2123;SDS011;1068;52.460;13.528;2022-12-18T05:21:09;30.98;;;13.15;;
2123;SDS011;1068;52.460;13.528;2022-12-18T05:23:36;21.75;;;11.05;;
2123;SDS011;1068;52.460;13.528;2022-12-18T05:26:03;24.80;;;12.75;;
2123;SDS011;1068;52.460;13.528;2022-12-18T05:28:32;25.58;;;12.23;;
2123;SDS011;1068;52.460;13.528;2022-12-18T05:30:59;24.20;;;11.52;;
2123;SDS011;1068;52.460;13.528;2022-12-18T05:33:28;28.88;;;14.40;;
2123;SDS011;1068;52.460;13.528;2022-12-18T05:35:57;27.80;;;12.95;;
2123;SDS011;1068;52.460;13.528;2022-12-18T05:38:25;23.90;;;11.68;;
2123;SDS011;1068;52.460;13.528;2022-12-18T05:40:53;27.88;;;12.70;;
2123;SDS011;1068;52.460;13.528;2022-12-18T05:43:20;32.15;;;13.95;;
2123;SDS011;1068;52.460;13.528;2022-12-18T05:45:48;34.45;;;14.55;;
2123;SDS011;1068;52.460;13.528;2022-12-18T05:48:15;27.77;;;12.98;;
2123;SDS011;1068;52.460;13.528;2022-12-18T05:50:43;28.70;;;14.23;;
2123;SDS011;1068;52.460;13.528;2022-12-18T05:53:12;30.08;;;13.77;;
2123;SDS011;1068;52.460;13.528;2022-12-18T05:55:40;27.10;;;13.05;;
2123;SDS011;1068;52.460;13.528;2022-12-18T05:58:08;26.02;;;12.75;;
2123;SDS011;1068;52.460;13.528;2022-12-18T06:00:36;23.02;;;11.80;;
2123;SDS011;1068;52.460;13.528;2022-12-18T06:03:04;29.90;;;14.07;;
2123;SDS011;1068;52.460;13.528;2022-12-18T06:05:34;27.83;;;13.52;;
2123;SDS011;1068;52.460;13.528;2022-12-18T06:08:01;31.60;;;12.68;;
2123;SDS011;1068;52.460;13.528;2022-12-18T06:10:30;26.48;;;12.25;;
2123;SDS011;1068;52.460;13.528;2022-12-18T06:12:57;30.10;;;13.00;;
2123;SDS011;1068;52.460;13.528;2022-12-18T06:15:24;29.27;;;13.43;;
2123;SDS011;1068;52.460;13.528;2022-12-18T06:17:51;29.65;;;13.20;;
2123;SDS011;1068;52.460;13.528;2022-12-18T06:20:18;26.55;;;12.80;;
2123;SDS011;1068;52.460;13.528;2022-12-18T06:22:45;29.15;;;13.55;;
2123;SDS011;1068;52.460;13.528;2022-12-18T06:25:12;28.77;;;14.70;;
2123;SDS011;1068;52.460;13.528;2022-12-18T06:27:40;25.85;;;14.23;;
2123;SDS011;1068;52.460;13.528;2022-12-18T06:30:08;24.77;;;13.05;;
2123;SDS011;1068;52.460;13.528;2022-12-18T06:32:35;28.42;;;11.82;;
2123;SDS011;1068;52.460;13.528;2022-12-18T06:35:02;38.22;;;16.13;;
2123;SDS011;1068;52.460;13.528;2022-12-18T06:37:30;26.40;;;13.63;;
2123;SDS011;1068;52.460;13.528;2022-12-18T06:39:57;23.73;;;12.75;;
2123;SDS011;1068;52.460;13.528;2022-12-18T06:42:25;31.55;;;14.35;;
2123;SDS011;1068;52.460;13.528;2022-12-18T06:44:54;28.90;;;13.00;;
2123;SDS011;1068;52.460;13.528;2022-12-18T06:47:21;26.38;;;14.02;;
2123;SDS011;1068;52.460;13.528;2022-12-18T06:49:48;31.65;;;14.15;;
2123;SDS011;1068;52.460;13.528;2022-12-18T06:52:18;28.60;;;15.70;;
2123;SDS011;1068;52.460;13.528;2022-12-18T06:54:44;32.95;;;14.85;;
2123;SDS011;1068;52.460;13.528;2022-12-18T06:57:11;29.55;;;13.98;;
2123;SDS011;1068;52.460;13.528;2022-12-18T06:59:38;30.55;;;14.95;;
2123;SDS011;1068;52.460;13.528;2022-12-18T07:02:09;31.33;;;15.40;;
2123;SDS011;1068;52.460;13.528;2022-12-18T07:04:37;31.40;;;14.15;;
2123;SDS011;1068;52.460;13.528;2022-12-18T07:07:04;28.23;;;14.20;;
2123;SDS011;1068;52.460;13.528;2022-12-18T07:09:31;28.90;;;14.23;;
2123;SDS011;1068;52.460;13.528;2022-12-18T07:11:58;27.98;;;13.27;;
2123;SDS011;1068;52.460;13.528;2022-12-18T07:14:25;26.55;;;15.82;;
2123;SDS011;1068;52.460;13.528;2022-12-18T07:16:52;30.45;;;13.85;;
2123;SDS011;1068;52.460;13.528;2022-12-18T07:19:27;29.05;;;14.27;;
2123;SDS011;1068;52.460;13.528;2022-12-18T07:21:54;29.00;;;13.65;;
2123;SDS011;1068;52.460;13.528;2022-12-18T07:24:21;34.08;;;14.10;;
2123;SDS011;1068;52.460;13.528;2022-12-18T07:26:48;31.58;;;14.98;;
2123;SDS011;1068;52.460;13.528;2022-12-18T07:29:15;32.97;;;15.00;;
2123;SDS011;1068;52.460;13.528;2022-12-18T07:31:42;32.50;;;14.77;;
2123;SDS011;1068;52.460;13.528;2022-12-18T07:34:10;35.55;;;15.05;;
2123;SDS011;1068;52.460;13.528;2022-12-18T07:36:38;32.33;;;14.95;;
2123;SDS011;1068;52.460;13.528;2022-12-18T07:39:05;30.35;;;14.82;;
2123;SDS011;1068;52.460;13.528;2022-12-18T07:41:32;33.50;;;14.93;;
2123;SDS011;1068;52.460;13.528;2022-12-18T07:43:59;32.45;;;15.32;;
2123;SDS011;1068;52.460;13.528;2022-12-18T07:46:26;33.60;;;15.85;;
2123;SDS011;1068;52.460;13.528;2022-12-18T07:48:53;31.52;;;14.93;;
2123;SDS011;1068;52.460;13.528;2022-12-18T07:51:20;33.67;;;15.23;;
2123;SDS011;1068;52.460;13.528;2022-12-18T07:53:48;29.20;;;13.90;;
2123;SDS011;1068;52.460;13.528;2022-12-18T07:56:15;33.17;;;16.35;;
2123;SDS011;1068;52.460;13.528;2022-12-18T07:58:42;34.08;;;14.85;;
2123;SDS011;1068;52.460;13.528;2022-12-18T08:01:10;28.67;;;14.50;;
2123;SDS011;1068;52.460;13.528;2022-12-18T08:03:38;32.85;;;15.27;;
2123;SDS011;1068;52.460;13.528;2022-12-18T08:06:06;34.17;;;13.63;;
2123;SDS011;1068;52.460;13.528;2022-12-18T08:08:33;28.73;;;15.25;;
2123;SDS011;1068;52.460;13.528;2022-12-18T08:11:02;38.13;;;16.98;;
2123;SDS011;1068;52.460;13.528;2022-12-18T08:13:29;42.20;;;17.05;;
2123;SDS011;1068;52.460;13.528;2022-12-18T08:15:56;35.70;;;15.75;;
2123;SDS011;1068;52.460;13.528;2022-12-18T08:18:23;38.90;;;16.90;;
2123;SDS011;1068;52.460;13.528;2022-12-18T08:20:50;34.08;;;15.20;;
2123;SDS011;1068;52.460;13.528;2022-12-18T08:23:17;36.60;;;15.50;;
2123;SDS011;1068;52.460;13.528;2022-12-18T08:25:44;42.80;;;16.23;;
2123;SDS011;1068;52.460;13.528;2022-12-18T08:28:18;34.35;;;15.05;;
2123;SDS011;1068;52.460;13.528;2022-12-18T08:30:45;40.63;;;15.43;;
2123;SDS011;1068;52.460;13.528;2022-12-18T08:33:12;44.72;;;16.75;;
2123;SDS011;1068;52.460;13.528;2022-12-18T08:35:39;37.72;;;17.23;;
2123;SDS011;1068;52.460;13.528;2022-12-18T08:38:06;35.13;;;15.88;;
2123;SDS011;1068;52.460;13.528;2022-12-18T08:40:33;35.65;;;16.95;;
2123;SDS011;1068;52.460;13.528;2022-12-18T08:43:00;39.40;;;17.10;;
2123;SDS011;1068;52.460;13.528;2022-12-18T08:45:58;33.90;;;16.20;;
2123;SDS011;1068;52.460;13.528;2022-12-18T08:48:25;44.95;;;20.70;;
2123;SDS011;1068;52.460;13.528;2022-12-18T08:50:55;48.60;;;21.13;;
2123;SDS011;1068;52.460;13.528;2022-12-18T08:53:25;41.28;;;18.00;;
2123;SDS011;1068;52.460;13.528;2022-12-18T08:55:52;42.20;;;16.70;;
2123;SDS011;1068;52.460;13.528;2022-12-18T08:58:19;37.63;;;17.00;;
2123;SDS011;1068;52.460;13.528;2022-12-18T09:00:46;44.10;;;18.50;;
2123;SDS011;1068;52.460;13.528;2022-12-18T09:03:14;50.85;;;18.45;;
2123;SDS011;1068;52.460;13.528;2022-12-18T09:05:42;37.25;;;19.50;;
2123;SDS011;1068;52.460;13.528;2022-12-18T09:08:09;45.90;;;17.17;;
2123;SDS011;1068;52.460;13.528;2022-12-18T09:10:40;38.95;;;17.88;;
2123;SDS011;1068;52.460;13.528;2022-12-18T09:13:07;39.65;;;16.92;;
2123;SDS011;1068;52.460;13.528;2022-12-18T09:15:39;39.53;;;16.50;;
2123;SDS011;1068;52.460;13.528;2022-12-18T09:18:06;40.78;;;17.90;;
2123;SDS011;1068;52.460;13.528;2022-12-18T09:20:35;36.40;;;15.52;;
2123;SDS011;1068;52.460;13.528;2022-12-18T09:23:02;34.78;;;14.85;;
2123;SDS011;1068;52.460;13.528;2022-12-18T09:25:29;44.28;;;18.45;;
2123;SDS011;1068;52.460;13.528;2022-12-18T09:27:58;30.25;;;14.63;;
2123;SDS011;1068;52.460;13.528;2022-12-18T09:30:25;36.80;;;16.00;;
2123;SDS011;1068;52.460;13.528;2022-12-18T09:32:55;29.92;;;14.68;;
2123;SDS011;1068;52.460;13.528;2022-12-18T09:35:22;38.15;;;16.65;;
2123;SDS011;1068;52.460;13.528;2022-12-18T09:37:50;34.67;;;15.27;;
2123;SDS011;1068;52.460;13.528;2022-12-18T09:40:18;36.42;;;15.65;;
2123;SDS011;1068;52.460;13.528;2022-12-18T09:42:47;35.97;;;16.30;;
2123;SDS011;1068;52.460;13.528;2022-12-18T09:45:14;31.73;;;14.32;;
2123;SDS011;1068;52.460;13.528;2022-12-18T09:47:42;33.75;;;15.65;;
2123;SDS011;1068;52.460;13.528;2022-12-18T09:50:15;29.20;;;14.05;;
2123;SDS011;1068;52.460;13.528;2022-12-18T09:52:45;35.50;;;14.93;;
2123;SDS011;1068;52.460;13.528;2022-12-18T09:55:17;30.33;;;15.20;;
2123;SDS011;1068;52.460;13.528;2022-12-18T09:57:47;33.55;;;15.07;;
2123;SDS011;1068;52.460;13.528;2022-12-18T10:00:16;28.38;;;13.85;;
2123;SDS011;1068;52.460;13.528;2022-12-18T10:02:44;29.20;;;14.75;;
2123;SDS011;1068;52.460;13.528;2022-12-18T10:05:12;32.58;;;14.40;;
2123;SDS011;1068;52.460;13.528;2022-12-18T10:10:30;36.88;;;17.08;;
2123;SDS011;1068;52.460;13.528;2022-12-18T10:13:00;35.17;;;15.30;;
2123;SDS011;1068;52.460;13.528;2022-12-18T10:15:30;34.85;;;17.30;;
2123;SDS011;1068;52.460;13.528;2022-12-18T10:18:01;31.38;;;15.38;;
2123;SDS011;1068;52.460;13.528;2022-12-18T10:20:32;37.15;;;15.77;;
2123;SDS011;1068;52.460;13.528;2022-12-18T10:23:00;26.83;;;12.82;;
2123;SDS011;1068;52.460;13.528;2022-12-18T10:25:31;29.15;;;13.23;;
2123;SDS011;1068;52.460;13.528;2022-12-18T10:28:07;28.63;;;14.00;;
2123;SDS011;1068;52.460;13.528;2022-12-18T10:30:35;28.45;;;13.88;;
2123;SDS011;1068;52.460;13.528;2022-12-18T10:33:02;34.05;;;14.10;;
2123;SDS011;1068;52.460;13.528;2022-12-18T10:35:29;29.17;;;13.32;;
2123;SDS011;1068;52.460;13.528;2022-12-18T10:38:00;27.85;;;14.10;;
2123;SDS011;1068;52.460;13.528;2022-12-18T10:40:27;30.00;;;13.32;;
2123;SDS011;1068;52.460;13.528;2022-12-18T10:43:10;21.58;;;13.05;;
2123;SDS011;1068;52.460;13.528;2022-12-18T10:45:37;23.63;;;12.23;;
2123;SDS011;1068;52.460;13.528;2022-12-18T10:48:04;30.30;;;13.30;;
2123;SDS011;1068;52.460;13.528;2022-12-18T10:50:33;29.33;;;13.05;;
2123;SDS011;1068;52.460;13.528;2022-12-18T10:53:00;27.23;;;13.13;;
2123;SDS011;1068;52.460;13.528;2022-12-18T10:55:30;30.73;;;12.60;;
2123;SDS011;1068;52.460;13.528;2022-12-18T11:00:41;24.48;;;13.95;;
2123;SDS011;1068;52.460;13.528;2022-12-18T11:03:16;26.23;;;12.43;;
2123;SDS011;1068;52.460;13.528;2022-12-18T11:06:01;27.58;;;12.18;;
2123;SDS011;1068;52.460;13.528;2022-12-18T11:08:28;26.92;;;11.82;;
2123;SDS011;1068;52.460;13.528;2022-12-18T11:10:55;23.63;;;11.30;;
2123;SDS011;1068;52.460;13.528;2022-12-18T11:13:22;23.90;;;12.00;;
2123;SDS011;1068;52.460;13.528;2022-12-18T11:15:51;23.85;;;12.20;;
2123;SDS011;1068;52.460;13.528;2022-12-18T11:18:19;21.33;;;11.18;;
2123;SDS011;1068;52.460;13.528;2022-12-18T11:20:50;27.63;;;13.32;;
2123;SDS011;1068;52.460;13.528;2022-12-18T11:23:18;19.83;;;11.80;;
2123;SDS011;1068;52.460;13.528;2022-12-18T11:25:50;24.88;;;11.35;;
2123;SDS011;1068;52.460;13.528;2022-12-18T11:28:25;20.65;;;11.30;;
2123;SDS011;1068;52.460;13.528;2022-12-18T11:33:37;24.17;;;12.27;;
2123;SDS011;1068;52.460;13.528;2022-12-18T11:36:06;24.85;;;12.70;;
2123;SDS011;1068;52.460;13.528;2022-12-18T11:38:35;17.92;;;10.63;;
2123;SDS011;1068;52.460;13.528;2022-12-18T11:41:04;24.77;;;11.55;;
2123;SDS011;1068;52.460;13.528;2022-12-18T11:43:33;30.55;;;12.55;;
2123;SDS011;1068;52.460;13.528;2022-12-18T11:46:02;23.88;;;11.55;;
2123;SDS011;1068;52.460;13.528;2022-12-18T11:48:32;25.17;;;11.05;;
2123;SDS011;1068;52.460;13.528;2022-12-18T11:51:01;27.73;;;11.43;;
2123;SDS011;1068;52.460;13.528;2022-12-18T11:53:29;24.38;;;12.15;;
2123;SDS011;1068;52.460;13.528;2022-12-18T11:56:00;31.30;;;11.75;;
2123;SDS011;1068;52.460;13.528;2022-12-18T11:58:32;28.42;;;13.35;;
2123;SDS011;1068;52.460;13.528;2022-12-18T12:01:02;22.98;;;13.90;;
2123;SDS011;1068;52.460;13.528;2022-12-18T12:03:39;22.60;;;12.90;;
2123;SDS011;1068;52.460;13.528;2022-12-18T12:06:10;23.25;;;13.00;;
2123;SDS011;1068;52.460;13.528;2022-12-18T12:08:42;19.67;;;11.30;;
2123;SDS011;1068;52.460;13.528;2022-12-18T12:11:11;21.33;;;12.48;;
2123;SDS011;1068;52.460;13.528;2022-12-18T12:13:43;28.02;;;13.10;;
2123;SDS011;1068;52.460;13.528;2022-12-18T12:16:15;23.42;;;13.25;;
2123;SDS011;1068;52.460;13.528;2022-12-18T12:18:47;20.65;;;12.32;;
2123;SDS011;1068;52.460;13.528;2022-12-18T12:21:20;23.70;;;12.77;;
2123;SDS011;1068;52.460;13.528;2022-12-18T12:23:50;24.98;;;14.80;;
2123;SDS011;1068;52.460;13.528;2022-12-18T12:26:22;29.25;;;14.40;;
2123;SDS011;1068;52.460;13.528;2022-12-18T12:28:57;22.73;;;13.68;;
2123;SDS011;1068;52.460;13.528;2022-12-18T12:31:31;19.98;;;13.23;;
2123;SDS011;1068;52.460;13.528;2022-12-18T12:34:01;27.20;;;13.82;;
2123;SDS011;1068;52.460;13.528;2022-12-18T12:36:37;22.70;;;13.00;;
2123;SDS011;1068;52.460;13.528;2022-12-18T12:39:08;24.80;;;14.60;;
2123;SDS011;1068;52.460;13.528;2022-12-18T12:41:37;25.85;;;13.52;;
2123;SDS011;1068;52.460;13.528;2022-12-18T12:44:24;23.02;;;13.02;;
2123;SDS011;1068;52.460;13.528;2022-12-18T12:46:52;27.52;;;13.57;;
2123;SDS011;1068;52.460;13.528;2022-12-18T12:49:21;20.02;;;13.38;;
2123;SDS011;1068;52.460;13.528;2022-12-18T12:51:53;20.45;;;11.35;;
2123;SDS011;1068;52.460;13.528;2022-12-18T12:54:24;22.00;;;12.75;;
2123;SDS011;1068;52.460;13.528;2022-12-18T12:56:58;23.70;;;12.07;;
2123;SDS011;1068;52.460;13.528;2022-12-18T12:59:27;22.05;;;11.63;;
2123;SDS011;1068;52.460;13.528;2022-12-18T13:01:58;26.50;;;15.05;;
2123;SDS011;1068;52.460;13.528;2022-12-18T13:04:27;22.55;;;13.52;;
2123;SDS011;1068;52.460;13.528;2022-12-18T13:07:01;29.23;;;17.60;;
2123;SDS011;1068;52.460;13.528;2022-12-18T13:09:31;22.65;;;13.23;;
2123;SDS011;1068;52.460;13.528;2022-12-18T13:12:03;24.27;;;13.75;;
2123;SDS011;1068;52.460;13.528;2022-12-18T13:14:48;26.55;;;14.70;;
2123;SDS011;1068;52.460;13.528;2022-12-18T13:17:27;28.67;;;14.43;;
2123;SDS011;1068;52.460;13.528;2022-12-18T13:20:05;21.67;;;13.45;;
2123;SDS011;1068;52.460;13.528;2022-12-18T13:22:35;22.27;;;12.00;;
2123;SDS011;1068;52.460;13.528;2022-12-18T13:25:03;23.73;;;14.00;;
2123;SDS011;1068;52.460;13.528;2022-12-18T13:33:05;21.60;;;13.10;;
2123;SDS011;1068;52.460;13.528;2022-12-18T13:36:00;23.83;;;13.48;;
2123;SDS011;1068;52.460;13.528;2022-12-18T13:38:32;29.45;;;14.27;;
2123;SDS011;1068;52.460;13.528;2022-12-18T13:41:00;24.30;;;14.35;;
2123;SDS011;1068;52.460;13.528;2022-12-18T13:43:31;29.90;;;15.43;;
2123;SDS011;1068;52.460;13.528;2022-12-18T13:46:00;25.35;;;16.40;;
2123;SDS011;1068;52.460;13.528;2022-12-18T13:48:29;23.92;;;14.32;;
2123;SDS011;1068;52.460;13.528;2022-12-18T13:51:00;24.35;;;16.10;;
2123;SDS011;1068;52.460;13.528;2022-12-18T13:53:29;23.45;;;13.75;;
2123;SDS011;1068;52.460;13.528;2022-12-18T13:55:57;25.08;;;15.13;;
2123;SDS011;1068;52.460;13.528;2022-12-18T13:58:24;22.85;;;14.90;;
2123;SDS011;1068;52.460;13.528;2022-12-18T14:00:51;28.38;;;15.88;;
2123;SDS011;1068;52.460;13.528;2022-12-18T14:03:19;29.40;;;15.93;;
2123;SDS011;1068;52.460;13.528;2022-12-18T14:05:46;26.17;;;13.77;;
2123;SDS011;1068;52.460;13.528;2022-12-18T14:08:20;25.00;;;14.90;;
2123;SDS011;1068;52.460;13.528;2022-12-18T14:10:47;24.92;;;13.98;;
2123;SDS011;1068;52.460;13.528;2022-12-18T14:13:17;24.95;;;13.88;;
2123;SDS011;1068;52.460;13.528;2022-12-18T14:15:46;26.00;;;16.27;;
2123;SDS011;1068;52.460;13.528;2022-12-18T14:18:17;26.23;;;13.55;;
2123;SDS011;1068;52.460;13.528;2022-12-18T14:20:48;22.05;;;13.48;;
2123;SDS011;1068;52.460;13.528;2022-12-18T14:23:26;21.80;;;14.88;;
2123;SDS011;1068;52.460;13.528;2022-12-18T14:25:53;21.75;;;14.40;;
2123;SDS011;1068;52.460;13.528;2022-12-18T14:28:21;28.92;;;14.20;;
2123;SDS011;1068;52.460;13.528;2022-12-18T14:30:48;21.23;;;14.38;;
2123;SDS011;1068;52.460;13.528;2022-12-18T14:33:16;23.58;;;12.43;;
2123;SDS011;1068;52.460;13.528;2022-12-18T14:35:52;20.10;;;12.27;;
2123;SDS011;1068;52.460;13.528;2022-12-18T14:38:20;22.00;;;12.48;;
2123;SDS011;1068;52.460;13.528;2022-12-18T14:40:52;22.90;;;13.75;;
2123;SDS011;1068;52.460;13.528;2022-12-18T14:43:20;22.35;;;13.38;;
2123;SDS011;1068;52.460;13.528;2022-12-18T14:45:47;21.65;;;12.60;;
2123;SDS011;1068;52.460;13.528;2022-12-18T14:48:15;25.98;;;12.82;;
2123;SDS011;1068;52.460;13.528;2022-12-18T14:50:43;27.85;;;14.85;;
2123;SDS011;1068;52.460;13.528;2022-12-18T14:55:56;22.90;;;12.82;;
2123;SDS011;1068;52.460;13.528;2022-12-18T14:58:23;23.92;;;15.20;;
2123;SDS011;1068;52.460;13.528;2022-12-18T15:00:50;25.27;;;13.88;;